sensor_id;sensor_type;location;lat;lon;timestamp;temperature;humidity
65040;HTU21D;51606;45.000;38.612;2024-03-25T04:53:31;5.33;75.31
65040;HTU21D;51606;45.000;38.612;2024-03-25T04:55:57;5.66;75.14
65040;HTU21D;51606;45.000;38.612;2024-03-25T04:58:24;6.20;74.91
65040;HTU21D;51606;45.000;38.612;2024-03-25T05:00:50;7.07;74.25
65040;HTU21D;51606;45.000;38.612;2024-03-25T05:03:16;7.98;73.55
65040;HTU21D;51606;45.000;38.612;2024-03-25T05:05:43;9.03;72.89
65040;HTU21D;51606;45.000;38.612;2024-03-25T05:08:09;10.03;72.11
65040;HTU21D;51606;45.000;38.612;2024-03-25T05:10:36;10.90;71.43
65040;HTU21D;51606;45.000;38.612;2024-03-25T05:13:02;11.62;71.10
65040;HTU21D;51606;45.000;38.612;2024-03-25T05:15:28;12.38;70.59
65040;HTU21D;51606;45.000;38.612;2024-03-25T05:17:54;12.93;70.03
65040;HTU21D;51606;45.000;38.612;2024-03-25T05:20:21;13.32;69.84
65040;HTU21D;51606;45.000;38.612;2024-03-25T05:22:48;13.80;69.61
65040;HTU21D;51606;45.000;38.612;2024-03-25T05:25:14;14.27;69.10
65040;HTU21D;51606;45.000;38.612;2024-03-25T05:27:41;14.56;68.87
65040;HTU21D;51606;45.000;38.612;2024-03-25T05:30:08;14.78;68.83
65040;HTU21D;51606;45.000;38.612;2024-03-25T05:32:34;14.88;68.84
65040;HTU21D;51606;45.000;38.612;2024-03-25T05:35:02;14.97;69.01
65040;HTU21D;51606;45.000;38.612;2024-03-25T05:37:29;15.18;69.07
65040;HTU21D;51606;45.000;38.612;2024-03-25T05:39:58;15.31;69.03
65040;HTU21D;51606;45.000;38.612;2024-03-25T05:42:25;15.45;69.20
65040;HTU21D;51606;45.000;38.612;2024-03-25T05:44:51;15.60;69.20
65040;HTU21D;51606;45.000;38.612;2024-03-25T05:47:17;15.78;69.20
65040;HTU21D;51606;45.000;38.612;2024-03-25T05:49:46;15.88;69.14
65040;HTU21D;51606;45.000;38.612;2024-03-25T05:52:13;16.13;69.14
65040;HTU21D;51606;45.000;38.612;2024-03-25T05:54:39;16.43;68.60
65040;HTU21D;51606;45.000;38.612;2024-03-25T05:57:06;16.62;68.13
65040;HTU21D;51606;45.000;38.612;2024-03-25T05:59:33;16.72;67.90
65040;HTU21D;51606;45.000;38.612;2024-03-25T06:01:59;16.81;67.55
65040;HTU21D;51606;45.000;38.612;2024-03-25T06:04:25;16.94;67.38
65040;HTU21D;51606;45.000;38.612;2024-03-25T06:06:52;17.00;67.07
65040;HTU21D;51606;45.000;38.612;2024-03-25T06:09:18;16.89;67.27
65040;HTU21D;51606;45.000;38.612;2024-03-25T06:11:44;16.59;68.00
65040;HTU21D;51606;45.000;38.612;2024-03-25T06:14:11;16.44;68.68
65040;HTU21D;51606;45.000;38.612;2024-03-25T06:16:38;16.57;69.06
65040;HTU21D;51606;45.000;38.612;2024-03-25T06:19:05;16.67;69.22
65040;HTU21D;51606;45.000;38.612;2024-03-25T06:21:31;16.61;69.71
65040;HTU21D;51606;45.000;38.612;2024-03-25T06:23:57;16.76;70.19
65040;HTU21D;51606;45.000;38.612;2024-03-25T06:26:24;16.79;69.90
65040;HTU21D;51606;45.000;38.612;2024-03-25T06:28:52;16.75;70.44
65040;HTU21D;51606;45.000;38.612;2024-03-25T06:31:18;16.79;70.55
65040;HTU21D;51606;45.000;38.612;2024-03-25T06:34:03;16.84;70.81
65040;HTU21D;51606;45.000;38.612;2024-03-25T06:36:44;16.93;70.63
65040;HTU21D;51606;45.000;38.612;2024-03-25T06:39:11;16.93;70.64
65040;HTU21D;51606;45.000;38.612;2024-03-25T06:41:37;17.05;70.65
65040;HTU21D;51606;45.000;38.612;2024-03-25T06:44:03;17.03;70.63
65040;HTU21D;51606;45.000;38.612;2024-03-25T06:46:31;17.03;70.80
65040;HTU21D;51606;45.000;38.612;2024-03-25T06:48:57;17.04;71.07
65040;HTU21D;51606;45.000;38.612;2024-03-25T06:51:24;17.30;70.97
65040;HTU21D;51606;45.000;38.612;2024-03-25T06:53:50;17.40;70.66
65040;HTU21D;51606;45.000;38.612;2024-03-25T06:56:18;17.51;70.64
65040;HTU21D;51606;45.000;38.612;2024-03-25T06:58:45;17.69;69.84
65040;HTU21D;51606;45.000;38.612;2024-03-25T07:01:11;17.63;68.97
65040;HTU21D;51606;45.000;38.612;2024-03-25T07:03:38;17.76;68.19
65040;HTU21D;51606;45.000;38.612;2024-03-25T07:06:05;18.00;67.91
65040;HTU21D;51606;45.000;38.612;2024-03-25T07:08:32;18.29;67.14
65040;HTU21D;51606;45.000;38.612;2024-03-25T07:10:59;18.69;66.35
65040;HTU21D;51606;45.000;38.612;2024-03-25T07:13:25;19.08;65.46
65040;HTU21D;51606;45.000;38.612;2024-03-25T07:15:52;19.73;64.40
65040;HTU21D;51606;45.000;38.612;2024-03-25T07:18:18;20.21;62.79
65040;HTU21D;51606;45.000;38.612;2024-03-25T07:20:44;20.69;62.06
65040;HTU21D;51606;45.000;38.612;2024-03-25T07:23:11;21.09;61.14
65040;HTU21D;51606;45.000;38.612;2024-03-25T07:25:37;21.36;60.32
65040;HTU21D;51606;45.000;38.612;2024-03-25T07:28:04;21.58;59.54
65040;HTU21D;51606;45.000;38.612;2024-03-25T07:30:31;21.76;58.37
65040;HTU21D;51606;45.000;38.612;2024-03-25T07:32:58;21.76;57.75
65040;HTU21D;51606;45.000;38.612;2024-03-25T07:35:26;21.75;57.92
65040;HTU21D;51606;45.000;38.612;2024-03-25T07:37:52;21.93;57.19
65040;HTU21D;51606;45.000;38.612;2024-03-25T07:40:19;22.08;56.77
65040;HTU21D;51606;45.000;38.612;2024-03-25T07:42:46;22.28;56.35
65040;HTU21D;51606;45.000;38.612;2024-03-25T07:45:13;22.34;55.05
65040;HTU21D;51606;45.000;38.612;2024-03-25T07:47:40;22.19;54.42
65040;HTU21D;51606;45.000;38.612;2024-03-25T07:50:07;22.13;54.27
65040;HTU21D;51606;45.000;38.612;2024-03-25T07:52:34;22.27;54.25
65040;HTU21D;51606;45.000;38.612;2024-03-25T07:55:07;22.35;54.20
65040;HTU21D;51606;45.000;38.612;2024-03-25T07:57:33;22.47;54.16
65040;HTU21D;51606;45.000;38.612;2024-03-25T08:00:00;22.55;53.84
65040;HTU21D;51606;45.000;38.612;2024-03-25T08:02:27;22.68;53.70
65040;HTU21D;51606;45.000;38.612;2024-03-25T08:04:53;22.60;53.46
65040;HTU21D;51606;45.000;38.612;2024-03-25T08:07:19;22.63;53.56
65040;HTU21D;51606;45.000;38.612;2024-03-25T08:09:46;22.81;53.43
65040;HTU21D;51606;45.000;38.612;2024-03-25T08:12:12;22.93;53.20
65040;HTU21D;51606;45.000;38.612;2024-03-25T08:14:38;22.95;52.91
65040;HTU21D;51606;45.000;38.612;2024-03-25T08:17:05;23.14;52.92
65040;HTU21D;51606;45.000;38.612;2024-03-25T08:19:31;23.16;52.53
65040;HTU21D;51606;45.000;38.612;2024-03-25T08:21:57;23.25;52.55
65040;HTU21D;51606;45.000;38.612;2024-03-25T08:24:27;23.36;51.97
65040;HTU21D;51606;45.000;38.612;2024-03-25T08:26:53;23.29;51.86
65040;HTU21D;51606;45.000;38.612;2024-03-25T08:29:19;23.20;51.61
65040;HTU21D;51606;45.000;38.612;2024-03-25T08:31:46;23.18;51.69
65040;HTU21D;51606;45.000;38.612;2024-03-25T08:34:12;23.28;51.57
65040;HTU21D;51606;45.000;38.612;2024-03-25T08:36:39;23.22;51.00
65040;HTU21D;51606;45.000;38.612;2024-03-25T08:39:05;23.10;50.45
65040;HTU21D;51606;45.000;38.612;2024-03-25T08:41:32;22.98;49.86
65040;HTU21D;51606;45.000;38.612;2024-03-25T08:43:58;22.84;49.94
65040;HTU21D;51606;45.000;38.612;2024-03-25T08:46:25;22.82;50.05
65040;HTU21D;51606;45.000;38.612;2024-03-25T08:48:51;22.97;49.72
65040;HTU21D;51606;45.000;38.612;2024-03-25T08:51:17;22.91;49.30
65040;HTU21D;51606;45.000;38.612;2024-03-25T08:53:44;22.88;49.69
65040;HTU21D;51606;45.000;38.612;2024-03-25T08:56:11;22.90;49.14
65040;HTU21D;51606;45.000;38.612;2024-03-25T08:58:37;22.79;49.24
65040;HTU21D;51606;45.000;38.612;2024-03-25T09:01:03;22.82;49.10
65040;HTU21D;51606;45.000;38.612;2024-03-25T09:03:31;22.56;48.74
65040;HTU21D;51606;45.000;38.612;2024-03-25T09:05:59;22.52;48.87
65040;HTU21D;51606;45.000;38.612;2024-03-25T09:08:25;22.43;48.66
65040;HTU21D;51606;45.000;38.612;2024-03-25T09:10:52;22.32;48.36
65040;HTU21D;51606;45.000;38.612;2024-03-25T09:13:33;22.04;48.09
65040;HTU21D;51606;45.000;38.612;2024-03-25T09:15:59;21.84;47.97
65040;HTU21D;51606;45.000;38.612;2024-03-25T09:18:25;21.75;47.89
65040;HTU21D;51606;45.000;38.612;2024-03-25T09:20:52;21.87;47.84
65040;HTU21D;51606;45.000;38.612;2024-03-25T09:23:19;21.93;47.33
65040;HTU21D;51606;45.000;38.612;2024-03-25T09:25:53;21.95;47.12
65040;HTU21D;51606;45.000;38.612;2024-03-25T09:28:19;21.80;47.44
65040;HTU21D;51606;45.000;38.612;2024-03-25T09:30:48;21.77;47.33
65040;HTU21D;51606;45.000;38.612;2024-03-25T09:33:14;21.74;47.78
65040;HTU21D;51606;45.000;38.612;2024-03-25T09:35:41;21.73;47.39
65040;HTU21D;51606;45.000;38.612;2024-03-25T09:38:07;21.55;47.29
65040;HTU21D;51606;45.000;38.612;2024-03-25T09:40:40;21.33;47.26
65040;HTU21D;51606;45.000;38.612;2024-03-25T09:43:32;21.15;46.64
65040;HTU21D;51606;45.000;38.612;2024-03-25T09:45:59;20.76;46.49
65040;HTU21D;51606;45.000;38.612;2024-03-25T09:48:26;20.46;46.34
65040;HTU21D;51606;45.000;38.612;2024-03-25T09:50:52;20.10;45.49
65040;HTU21D;51606;45.000;38.612;2024-03-25T09:53:19;19.58;45.64
65040;HTU21D;51606;45.000;38.612;2024-03-25T09:55:49;19.18;45.82
65040;HTU21D;51606;45.000;38.612;2024-03-25T09:58:15;18.84;45.87
65040;HTU21D;51606;45.000;38.612;2024-03-25T10:00:45;18.51;45.87
65040;HTU21D;51606;45.000;38.612;2024-03-25T10:03:11;18.30;46.22
65040;HTU21D;51606;45.000;38.612;2024-03-25T10:05:40;18.19;45.91
65040;HTU21D;51606;45.000;38.612;2024-03-25T10:08:06;17.96;46.10
65040;HTU21D;51606;45.000;38.612;2024-03-25T10:10:36;17.80;46.45
65040;HTU21D;51606;45.000;38.612;2024-03-25T10:13:05;17.77;46.62
65040;HTU21D;51606;45.000;38.612;2024-03-25T10:15:33;17.69;46.47
65040;HTU21D;51606;45.000;38.612;2024-03-25T10:17:59;17.65;46.51
65040;HTU21D;51606;45.000;38.612;2024-03-25T10:20:26;17.58;46.50
65040;HTU21D;51606;45.000;38.612;2024-03-25T10:22:52;17.64;46.64
65040;HTU21D;51606;45.000;38.612;2024-03-25T10:25:29;17.66;46.51
65040;HTU21D;51606;45.000;38.612;2024-03-25T10:28:02;17.68;46.41
65040;HTU21D;51606;45.000;38.612;2024-03-25T10:30:29;17.72;46.29
65040;HTU21D;51606;45.000;38.612;2024-03-25T10:33:03;17.75;46.15
65040;HTU21D;51606;45.000;38.612;2024-03-25T10:35:31;17.74;46.25
65040;HTU21D;51606;45.000;38.612;2024-03-25T10:38:02;17.73;46.09
65040;HTU21D;51606;45.000;38.612;2024-03-25T10:40:32;17.77;46.12
65040;HTU21D;51606;45.000;38.612;2024-03-25T10:43:04;17.79;45.78
65040;HTU21D;51606;45.000;38.612;2024-03-25T10:45:49;17.70;45.82
65040;HTU21D;51606;45.000;38.612;2024-03-25T10:48:19;17.73;45.84
65040;HTU21D;51606;45.000;38.612;2024-03-25T10:50:47;17.83;45.80
65040;HTU21D;51606;45.000;38.612;2024-03-25T10:53:18;17.80;45.43
65040;HTU21D;51606;45.000;38.612;2024-03-25T10:55:48;17.77;45.64
65040;HTU21D;51606;45.000;38.612;2024-03-25T10:58:17;17.89;45.67
65040;HTU21D;51606;45.000;38.612;2024-03-25T11:00:45;17.95;45.38
65040;HTU21D;51606;45.000;38.612;2024-03-25T11:03:12;17.88;45.32
65040;HTU21D;51606;45.000;38.612;2024-03-25T11:05:39;17.84;44.70
65040;HTU21D;51606;45.000;38.612;2024-03-25T11:08:13;17.74;44.28
65040;HTU21D;51606;45.000;38.612;2024-03-25T11:10:43;17.60;44.93
65040;HTU21D;51606;45.000;38.612;2024-03-25T11:13:11;17.61;45.35
65040;HTU21D;51606;45.000;38.612;2024-03-25T11:15:41;17.81;45.27
65040;HTU21D;51606;45.000;38.612;2024-03-25T11:18:12;18.14;44.83
65040;HTU21D;51606;45.000;38.612;2024-03-25T11:20:42;18.35;43.85
65040;HTU21D;51606;45.000;38.612;2024-03-25T11:23:17;18.53;43.84
65040;HTU21D;51606;45.000;38.612;2024-03-25T11:25:55;18.83;42.39
65040;HTU21D;51606;45.000;38.612;2024-03-25T11:28:27;19.02;41.96
65040;HTU21D;51606;45.000;38.612;2024-03-25T11:30:55;19.11;41.26
65040;HTU21D;51606;45.000;38.612;2024-03-25T11:33:22;19.17;41.67
65040;HTU21D;51606;45.000;38.612;2024-03-25T11:35:50;19.51;41.96
65040;HTU21D;51606;45.000;38.612;2024-03-25T11:38:17;19.83;41.88
65040;HTU21D;51606;45.000;38.612;2024-03-25T11:40:45;19.89;40.30
65040;HTU21D;51606;45.000;38.612;2024-03-25T11:43:18;19.89;41.04
65040;HTU21D;51606;45.000;38.612;2024-03-25T11:45:47;20.02;40.84
65040;HTU21D;51606;45.000;38.612;2024-03-25T11:48:16;20.18;41.28
65040;HTU21D;51606;45.000;38.612;2024-03-25T11:50:46;20.45;41.42
65040;HTU21D;51606;45.000;38.612;2024-03-25T11:53:17;20.71;41.52
65040;HTU21D;51606;45.000;38.612;2024-03-25T11:55:49;20.79;41.39
65040;HTU21D;51606;45.000;38.612;2024-03-25T11:58:17;20.89;41.65
65040;HTU21D;51606;45.000;38.612;2024-03-25T12:00:47;20.94;41.39
65040;HTU21D;51606;45.000;38.612;2024-03-25T12:03:18;20.85;41.74
65040;HTU21D;51606;45.000;38.612;2024-03-25T12:05:45;20.84;41.81
65040;HTU21D;51606;45.000;38.612;2024-03-25T12:08:11;20.81;41.87
65040;HTU21D;51606;45.000;38.612;2024-03-25T12:10:38;20.75;41.55
65040;HTU21D;51606;45.000;38.612;2024-03-25T12:13:25;20.46;41.74
65040;HTU21D;51606;45.000;38.612;2024-03-25T12:15:52;20.39;41.97
65040;HTU21D;51606;45.000;38.612;2024-03-25T12:18:19;20.34;41.90
65040;HTU21D;51606;45.000;38.612;2024-03-25T12:20:46;20.36;41.85
65040;HTU21D;51606;45.000;38.612;2024-03-25T12:23:12;20.32;41.88
65040;HTU21D;51606;45.000;38.612;2024-03-25T12:25:40;20.36;41.91
65040;HTU21D;51606;45.000;38.612;2024-03-25T12:28:10;20.34;41.78
65040;HTU21D;51606;45.000;38.612;2024-03-25T12:30:54;20.07;41.29
65040;HTU21D;51606;45.000;38.612;2024-03-25T12:33:22;19.99;41.83
65040;HTU21D;51606;45.000;38.612;2024-03-25T12:35:50;19.94;41.80
65040;HTU21D;51606;45.000;38.612;2024-03-25T12:38:24;19.94;41.89
65040;HTU21D;51606;45.000;38.612;2024-03-25T12:40:51;19.86;41.85
65040;HTU21D;51606;45.000;38.612;2024-03-25T12:43:18;19.72;41.25
65040;HTU21D;51606;45.000;38.612;2024-03-25T12:45:44;19.53;40.86
65040;HTU21D;51606;45.000;38.612;2024-03-25T12:48:10;19.29;40.23
65040;HTU21D;51606;45.000;38.612;2024-03-25T12:50:37;19.11;40.80
65040;HTU21D;51606;45.000;38.612;2024-03-25T12:53:04;19.10;41.20
65040;HTU21D;51606;45.000;38.612;2024-03-25T12:55:30;19.06;40.71
65040;HTU21D;51606;45.000;38.612;2024-03-25T12:57:57;18.95;39.94
65040;HTU21D;51606;45.000;38.612;2024-03-25T13:00:23;18.76;40.32
65040;HTU21D;51606;45.000;38.612;2024-03-25T13:02:49;18.73;40.48
65040;HTU21D;51606;45.000;38.612;2024-03-25T13:05:16;18.64;39.47
65040;HTU21D;51606;45.000;38.612;2024-03-25T13:07:43;18.39;39.27
65040;HTU21D;51606;45.000;38.612;2024-03-25T13:10:09;18.21;39.01
65040;HTU21D;51606;45.000;38.612;2024-03-25T13:12:35;18.10;39.43
65040;HTU21D;51606;45.000;38.612;2024-03-25T13:15:02;18.08;39.34
65040;HTU21D;51606;45.000;38.612;2024-03-25T13:17:29;18.06;39.20
65040;HTU21D;51606;45.000;38.612;2024-03-25T13:19:55;17.95;39.35
65040;HTU21D;51606;45.000;38.612;2024-03-25T13:22:22;17.99;39.64
65040;HTU21D;51606;45.000;38.612;2024-03-25T13:24:48;18.07;39.57
65040;HTU21D;51606;45.000;38.612;2024-03-25T13:27:16;18.04;39.78
65040;HTU21D;51606;45.000;38.612;2024-03-25T13:29:42;18.10;40.06
65040;HTU21D;51606;45.000;38.612;2024-03-25T13:32:08;18.21;40.16
65040;HTU21D;51606;45.000;38.612;2024-03-25T13:34:35;18.26;40.30
65040;HTU21D;51606;45.000;38.612;2024-03-25T13:37:01;18.28;40.04
65040;HTU21D;51606;45.000;38.612;2024-03-25T13:39:28;18.11;39.92
65040;HTU21D;51606;45.000;38.612;2024-03-25T13:41:54;18.07;40.38
65040;HTU21D;51606;45.000;38.612;2024-03-25T13:44:20;18.07;40.52
65040;HTU21D;51606;45.000;38.612;2024-03-25T13:46:47;18.06;40.45
65040;HTU21D;51606;45.000;38.612;2024-03-25T13:49:13;17.91;39.92
65040;HTU21D;51606;45.000;38.612;2024-03-25T13:51:43;17.69;40.04
65040;HTU21D;51606;45.000;38.612;2024-03-25T13:54:09;17.54;39.62
65040;HTU21D;51606;45.000;38.612;2024-03-25T13:56:36;17.41;39.73
65040;HTU21D;51606;45.000;38.612;2024-03-25T13:59:02;17.28;39.59
65040;HTU21D;51606;45.000;38.612;2024-03-25T14:01:28;17.16;39.42
65040;HTU21D;51606;45.000;38.612;2024-03-25T14:03:54;17.05;39.38
65040;HTU21D;51606;45.000;38.612;2024-03-25T14:06:21;16.98;39.82
65040;HTU21D;51606;45.000;38.612;2024-03-25T14:08:47;16.93;40.01
65040;HTU21D;51606;45.000;38.612;2024-03-25T14:11:14;16.91;39.81
65040;HTU21D;51606;45.000;38.612;2024-03-25T23:13:37;4.49;59.53
65040;HTU21D;51606;45.000;38.612;2024-03-25T23:16:07;4.51;59.64
65040;HTU21D;51606;45.000;38.612;2024-03-25T23:18:33;4.62;59.46
65040;HTU21D;51606;45.000;38.612;2024-03-25T23:21:02;4.62;59.46
65040;HTU21D;51606;45.000;38.612;2024-03-25T23:23:29;4.57;59.55
65040;HTU21D;51606;45.000;38.612;2024-03-25T23:25:58;4.52;59.62
65040;HTU21D;51606;45.000;38.612;2024-03-25T23:28:25;4.46;59.71
65040;HTU21D;51606;45.000;38.612;2024-03-25T23:30:54;4.44;59.83
65040;HTU21D;51606;45.000;38.612;2024-03-25T23:33:24;4.41;59.86
65040;HTU21D;51606;45.000;38.612;2024-03-25T23:35:50;4.37;59.91
65040;HTU21D;51606;45.000;38.612;2024-03-25T23:38:19;4.37;59.93
65040;HTU21D;51606;45.000;38.612;2024-03-25T23:40:48;4.36;59.96
65040;HTU21D;51606;45.000;38.612;2024-03-25T23:43:14;4.34;59.98
65040;HTU21D;51606;45.000;38.612;2024-03-25T23:45:41;4.31;60.01
65040;HTU21D;51606;45.000;38.612;2024-03-25T23:48:07;4.30;60.06
65040;HTU21D;51606;45.000;38.612;2024-03-25T23:50:37;4.31;60.07
65040;HTU21D;51606;45.000;38.612;2024-03-25T23:53:03;4.35;60.04
65040;HTU21D;51606;45.000;38.612;2024-03-25T23:55:37;4.33;60.02
65040;HTU21D;51606;45.000;38.612;2024-03-25T23:58:04;4.27;60.16
